Terminal Aerodrome Forecast
Issued by NWS

Home | Current Version | Previous Version | Text Only | Print | Product List | Glossary On
Versions: 1 2 3 4 5 6 7 8 9 10 11 12 13 14 15 16 17 18 19 20 21 22 23 24
000
FTUS41 KCAR 012348
TAFFVE
TAF
KFVE 012348Z 0200/0224 14011KT 3SM -RA SCT007 OVC015
     FM020200 16009KT 3SM BR OVC007
     FM020800 20010KT P6SM OVC010
     FM021000 21011KT P6SM BKN015
     FM021300 22012G22KT P6SM BKN035
     FM022300 25009KT P6SM BKN250=

USA.gov is the U.S. government's official web portal to all federal, state and local government web resources and services.